createdAt,value
2019-05-20T00:00:33.479Z,7.40
2019-05-20T00:03:03.339Z,7.23
2019-05-20T00:05:33.239Z,9.83
2019-05-20T00:08:03.439Z,9.63
2019-05-20T00:10:33.223Z,8.33
2019-05-20T00:13:03.254Z,7.50
2019-05-20T00:15:33.348Z,8.43
2019-05-20T00:18:03.246Z,8.73
2019-05-20T00:20:33.277Z,10.20
2019-05-20T00:23:03.021Z,9.90
2019-05-20T00:25:32.867Z,10.77
2019-05-20T00:28:02.629Z,9.53
2019-05-20T00:30:32.544Z,7.30
2019-05-20T00:33:02.326Z,7.77
2019-05-20T00:35:32.150Z,7.47
2019-05-20T00:38:02.932Z,8.40
2019-05-20T00:40:32.670Z,8.37
2019-05-20T00:43:02.451Z,8.40
2019-05-20T00:45:32.342Z,8.97
2019-05-20T00:48:02.242Z,8.30
2019-05-20T00:50:32.233Z,8.17
2019-05-20T00:53:02.117Z,8.70
2019-05-20T00:55:33.670Z,10.03
2019-05-20T00:58:03.481Z,9.20
2019-05-20T01:00:33.735Z,10.70
2019-05-20T01:03:03.870Z,8.67
2019-05-20T01:05:33.690Z,10.53
2019-05-20T01:08:03.528Z,7.27
2019-05-20T01:10:33.265Z,8.57
2019-05-20T01:13:03.190Z,8.90
2019-05-20T01:18:09.371Z,10.27
2019-05-20T01:20:39.141Z,7.50
2019-05-20T01:23:08.913Z,10.57
2019-05-20T01:25:39.980Z,11.00
2019-05-20T01:28:09.730Z,10.50
2019-05-20T01:30:39.590Z,10.80
2019-05-20T01:33:14.179Z,8.87
2019-05-20T01:35:41.165Z,13.07
2019-05-20T01:38:10.994Z,9.87
2019-05-20T01:40:40.855Z,11.03
2019-05-20T01:43:10.674Z,10.27
2019-05-20T01:45:40.511Z,11.03
2019-05-20T01:48:10.259Z,10.37
2019-05-20T01:50:40.372Z,10.37
2019-05-20T01:53:10.144Z,11.10
2019-05-20T01:55:39.971Z,9.80
2019-05-20T01:58:10.011Z,10.97
2019-05-20T02:00:39.926Z,13.60
2019-05-20T02:03:09.867Z,12.17
2019-05-20T02:05:40.885Z,12.00
2019-05-20T02:08:10.751Z,11.27
2019-05-20T02:10:40.764Z,9.03
2019-05-20T02:13:10.625Z,11.83
2019-05-20T02:15:46.074Z,9.37
2019-05-20T02:18:15.919Z,9.17
2019-05-20T02:20:46.057Z,8.97
2019-05-20T02:23:16.432Z,10.40
2019-05-20T02:25:47.599Z,11.77
2019-05-20T02:28:17.643Z,9.93
2019-05-20T02:30:47.641Z,9.43
2019-05-20T02:33:17.570Z,8.30
2019-05-20T02:35:47.590Z,10.33
2019-05-20T02:38:17.630Z,11.83
2019-05-20T02:40:47.606Z,9.83
2019-05-20T02:43:18.449Z,8.67
2019-05-20T02:45:48.685Z,10.10
2019-05-20T02:48:18.723Z,11.90
2019-05-20T02:50:48.685Z,10.00
2019-05-20T02:53:18.541Z,11.33
2019-05-20T02:55:48.380Z,9.93
2019-05-20T02:58:18.790Z,9.47
2019-05-20T03:00:48.677Z,11.63
2019-05-20T03:03:18.455Z,10.40
2019-05-20T03:05:48.468Z,11.17
2019-05-20T03:08:18.328Z,10.27
2019-05-20T03:10:48.220Z,11.03
2019-05-20T03:13:18.011Z,10.60
2019-05-20T03:15:47.855Z,10.47
2019-05-20T03:18:17.671Z,9.90
2019-05-20T03:20:47.451Z,9.77
2019-05-20T03:23:17.300Z,12.10
2019-05-20T03:25:47.560Z,9.13
2019-05-20T03:28:17.432Z,11.93
2019-05-20T03:30:47.491Z,9.47
2019-05-20T03:33:17.289Z,11.80
2019-05-20T03:35:47.225Z,10.63
2019-05-20T03:38:17.513Z,9.83
2019-05-20T03:40:47.398Z,10.87
2019-05-20T03:43:17.531Z,11.10
2019-05-20T03:45:47.419Z,11.00
2019-05-20T03:48:17.315Z,9.03
2019-05-20T03:50:47.337Z,9.77
2019-05-20T03:53:17.169Z,9.07
2019-05-20T03:55:46.932Z,9.73
2019-05-20T03:58:16.760Z,10.47
2019-05-20T04:00:47.740Z,10.87
2019-05-20T04:03:17.761Z,13.20
2019-05-20T04:05:47.827Z,13.90
2019-05-20T04:08:17.763Z,9.27
2019-05-20T04:10:49.005Z,9.93
2019-05-20T04:13:19.331Z,9.07
2019-05-20T04:15:49.185Z,12.47
2019-05-20T04:18:19.245Z,10.00
2019-05-20T04:20:49.199Z,16.40
2019-05-20T04:23:19.553Z,8.70
2019-05-20T04:25:49.623Z,7.93
2019-05-20T04:28:19.770Z,9.30
2019-05-20T04:30:49.573Z,10.37
2019-05-20T04:33:20.031Z,11.43
2019-05-20T04:35:50.151Z,9.27
2019-05-20T04:38:20.442Z,10.80
2019-05-20T04:40:50.219Z,11.57
2019-05-20T04:43:20.497Z,11.33
2019-05-20T04:45:51.295Z,13.50
2019-05-20T04:48:21.285Z,12.63
2019-05-20T04:50:51.154Z,9.30
2019-05-20T04:53:21.187Z,9.37
2019-05-20T04:55:51.186Z,9.27
2019-05-20T04:58:21.254Z,7.47
2019-05-20T05:00:58.646Z,10.03
2019-05-20T05:03:28.884Z,11.00
2019-05-20T05:05:59.975Z,8.77
2019-05-20T05:08:29.974Z,7.73
2019-05-20T05:10:59.973Z,10.87
2019-05-20T05:13:30.096Z,10.53
2019-05-20T05:16:00.592Z,8.67
2019-05-20T05:18:30.648Z,9.90
2019-05-20T05:21:00.730Z,12.93
2019-05-20T05:23:30.649Z,12.37
2019-05-20T05:26:00.627Z,8.03
2019-05-20T05:28:30.474Z,10.60
2019-05-20T05:31:00.412Z,11.37
2019-05-20T05:33:30.369Z,9.33
2019-05-20T05:36:00.507Z,11.03
2019-05-20T05:38:30.723Z,13.40
2019-05-20T05:41:00.740Z,9.07
2019-05-20T05:43:30.662Z,6.10
2019-05-20T05:46:00.456Z,8.33
2019-05-20T05:48:30.451Z,10.07
2019-05-20T05:51:00.533Z,8.90
2019-05-20T05:53:30.427Z,7.97
2019-05-20T05:56:00.275Z,11.17
2019-05-20T05:58:30.322Z,9.70
2019-05-20T06:01:00.159Z,8.90
2019-05-20T06:03:30.307Z,7.43
2019-05-20T06:06:11.177Z,9.03
2019-05-20T06:08:31.854Z,8.00
2019-05-20T06:11:01.973Z,9.00
2019-05-20T06:13:32.123Z,6.77
2019-05-20T06:16:01.947Z,8.97
2019-05-20T06:18:32.020Z,9.03
2019-05-20T06:21:02.142Z,7.73
2019-05-20T06:23:32.249Z,13.97
2019-05-20T06:26:02.107Z,8.53
2019-05-20T06:28:32.113Z,8.23
2019-05-20T06:31:02.069Z,11.43
2019-05-20T06:33:32.129Z,11.10
2019-05-20T06:36:04.639Z,8.43
2019-05-20T06:38:45.190Z,9.57
2019-05-20T06:41:15.136Z,10.00
2019-05-20T06:43:45.393Z,9.17
2019-05-20T06:46:15.292Z,8.87
2019-05-20T06:48:45.030Z,9.67
2019-05-20T06:51:15.182Z,8.70
2019-05-20T06:53:44.925Z,8.40
2019-05-20T06:56:14.673Z,13.47
2019-05-20T06:58:44.671Z,9.27
2019-05-20T07:01:14.432Z,8.30
2019-05-20T07:03:45.315Z,10.07
2019-05-20T07:06:15.151Z,9.13
2019-05-20T07:08:44.909Z,11.87
2019-05-20T07:11:14.819Z,11.43
2019-05-20T07:13:44.718Z,7.77
2019-05-20T07:16:14.707Z,9.70
2019-05-20T07:18:44.660Z,8.07
2019-05-20T07:21:14.514Z,8.40
2019-05-20T07:23:44.619Z,8.63
2019-05-20T07:26:14.512Z,7.83
2019-05-20T07:28:44.435Z,8.37
2019-05-20T07:31:14.294Z,6.80
2019-05-20T07:33:44.326Z,9.73
2019-05-20T07:36:14.217Z,10.13
2019-05-20T07:38:44.331Z,8.70
2019-05-20T07:41:14.212Z,10.13
2019-05-20T07:43:44.021Z,9.70
2019-05-20T07:46:14.349Z,8.77
2019-05-20T07:48:44.668Z,9.97
2019-05-20T07:51:15.355Z,9.07
2019-05-20T07:53:45.387Z,10.37
2019-05-20T07:56:18.300Z,11.93
2019-05-20T07:58:51.464Z,8.30
2019-05-20T08:01:21.399Z,12.57
2019-05-20T08:03:51.315Z,9.27
2019-05-20T08:06:21.170Z,8.23
2019-05-20T08:08:51.529Z,13.07
2019-05-20T08:11:21.396Z,16.77
2019-05-20T08:13:51.311Z,8.47
2019-05-20T08:16:21.288Z,11.80
2019-05-20T08:18:51.211Z,9.47
2019-05-20T08:21:21.359Z,10.87
2019-05-20T08:23:51.135Z,12.63
2019-05-20T08:26:21.058Z,12.13
2019-05-20T08:28:51.089Z,12.10
2019-05-20T08:31:21.176Z,12.03
2019-05-20T08:33:51.115Z,9.93
2019-05-20T08:36:21.221Z,11.90
2019-05-20T08:38:51.451Z,12.83
2019-05-20T08:41:21.560Z,11.20
2019-05-20T08:43:51.581Z,10.53
2019-05-20T08:46:21.473Z,10.60
2019-05-20T08:48:51.351Z,9.73
2019-05-20T08:51:21.296Z,12.03
2019-05-20T08:53:51.120Z,9.00
2019-05-20T08:56:21.013Z,11.00
2019-05-20T08:58:51.055Z,10.87
2019-05-20T09:01:21.153Z,10.33
2019-05-20T09:03:50.981Z,9.73
2019-05-20T09:06:21.143Z,10.07
2019-05-20T09:08:51.053Z,13.03
2019-05-20T09:11:20.842Z,10.90
2019-05-20T09:13:50.679Z,9.00
2019-05-20T09:16:20.571Z,9.57
2019-05-20T09:18:50.442Z,10.43
2019-05-20T09:21:20.588Z,9.77
2019-05-20T09:23:50.331Z,13.13
2019-05-20T09:26:20.407Z,9.50
2019-05-20T09:28:50.284Z,10.90
2019-05-20T09:31:20.431Z,9.43
2019-05-20T09:33:50.498Z,10.20
2019-05-20T09:36:20.788Z,8.50
2019-05-20T09:38:50.619Z,11.93
2019-05-20T09:41:20.853Z,10.03
2019-05-20T09:43:50.942Z,10.17
2019-05-20T09:46:20.929Z,10.03
2019-05-20T09:48:50.803Z,11.13
2019-05-20T09:51:20.903Z,11.07
2019-05-20T09:53:50.935Z,11.10
2019-05-20T09:56:22.070Z,11.37
2019-05-20T09:58:52.052Z,14.00
2019-05-20T10:01:22.094Z,10.03
2019-05-20T10:03:52.456Z,12.27
2019-05-20T10:06:22.454Z,9.57
2019-05-20T10:08:52.659Z,13.73
2019-05-20T10:11:22.590Z,11.40
2019-05-20T10:13:52.578Z,9.50
2019-05-20T10:16:22.440Z,10.03
2019-05-20T10:18:55.327Z,12.50
2019-05-20T10:21:24.426Z,14.17
2019-05-20T10:23:55.124Z,13.23
2019-05-20T10:26:25.182Z,13.17
2019-05-20T10:28:55.343Z,12.07
2019-05-20T10:31:25.455Z,16.47
2019-05-20T10:33:55.760Z,11.23
2019-05-20T10:36:26.386Z,14.30
2019-05-20T10:38:59.358Z,10.57
2019-05-20T10:41:29.665Z,14.53
2019-05-20T10:44:00.269Z,13.03
2019-05-20T10:46:31.043Z,11.43
2019-05-20T10:49:00.939Z,12.17
2019-05-20T10:51:31.128Z,12.00
2019-05-20T10:54:01.404Z,11.33
2019-05-20T10:56:31.707Z,13.23
2019-05-20T10:59:01.811Z,10.47
2019-05-20T11:01:31.832Z,11.47
2019-05-20T11:04:01.770Z,9.80
2019-05-20T11:06:31.631Z,11.77
2019-05-20T11:09:13.700Z,12.53
2019-05-20T11:11:33.508Z,12.13
2019-05-20T11:14:04.662Z,12.90
2019-05-20T11:16:34.491Z,11.30
2019-05-20T11:19:04.450Z,12.67
2019-05-20T11:21:34.385Z,11.70
2019-05-20T11:24:04.427Z,13.93
2019-05-20T11:26:35.144Z,11.27
2019-05-20T11:29:06.242Z,11.20
2019-05-20T11:31:36.129Z,11.60
2019-05-20T11:34:06.392Z,12.37
2019-05-20T11:36:36.583Z,11.10
2019-05-20T11:39:07.504Z,10.87
2019-05-20T11:41:52.743Z,10.83
2019-05-20T11:44:11.946Z,13.67
2019-05-20T11:46:41.748Z,13.53
2019-05-20T11:49:12.472Z,10.83
2019-05-20T11:51:43.198Z,11.87
2019-05-20T11:54:13.025Z,14.50
2019-05-20T11:56:43.176Z,12.00
2019-05-20T11:59:13.147Z,10.00
2019-05-20T12:01:43.324Z,11.70
2019-05-20T12:04:13.330Z,10.30
2019-05-20T12:06:43.708Z,10.83
2019-05-20T12:09:13.646Z,11.73
2019-05-20T12:11:43.618Z,14.77
2019-05-20T12:14:13.607Z,11.17
2019-05-20T12:16:43.484Z,11.97
2019-05-20T12:19:13.274Z,11.50
2019-05-20T12:21:43.271Z,9.33
2019-05-20T12:24:13.322Z,10.83
2019-05-20T12:26:43.162Z,8.10
2019-05-20T12:29:13.238Z,9.03
2019-05-20T12:31:43.067Z,10.10
2019-05-20T12:34:12.890Z,6.93
2019-05-20T12:36:42.761Z,7.57
2019-05-20T12:39:12.868Z,7.83
2019-05-20T12:41:42.708Z,11.57
2019-05-20T12:44:13.350Z,11.23
2019-05-20T12:46:43.594Z,12.10
2019-05-20T12:49:13.922Z,4.60
2019-05-20T12:51:44.022Z,5.00
2019-05-20T12:54:14.201Z,4.77
2019-05-20T12:56:44.135Z,10.27
2019-05-20T12:59:14.065Z,4.60
2019-05-20T13:01:44.024Z,5.33
2019-05-20T13:04:13.990Z,6.43
2019-05-20T13:06:44.068Z,4.90
2019-05-20T13:09:13.965Z,5.17
2019-05-20T13:11:43.944Z,4.20
2019-05-20T13:14:14.475Z,4.53
2019-05-20T13:16:44.690Z,4.97
2019-05-20T13:19:15.702Z,3.70
2019-05-20T13:21:45.918Z,3.87
2019-05-20T13:24:16.878Z,4.17
2019-05-20T13:26:47.336Z,4.23
2019-05-20T13:29:17.441Z,4.23
2019-05-20T13:31:47.260Z,3.63
2019-05-20T13:34:18.456Z,4.67
2019-05-20T13:36:48.706Z,4.40
2019-05-20T13:39:18.682Z,6.00
2019-05-20T13:41:49.764Z,4.10
2019-05-20T13:44:19.770Z,5.57
2019-05-20T13:46:50.021Z,4.70
2019-05-20T13:49:20.134Z,6.67
2019-05-20T13:51:50.359Z,6.23
2019-05-20T13:54:20.566Z,7.23
2019-05-20T13:56:50.416Z,4.77
2019-05-20T13:59:20.591Z,7.03
2019-05-20T14:01:50.561Z,6.57
2019-05-20T14:04:20.509Z,6.57
2019-05-20T14:06:50.984Z,5.10
2019-05-20T14:09:20.807Z,5.00
2019-05-20T14:11:50.752Z,5.80
2019-05-20T14:14:20.491Z,8.30
2019-05-20T14:16:50.230Z,5.17
2019-05-20T14:19:22.511Z,5.80
2019-05-20T14:21:51.895Z,4.50
2019-05-20T14:24:22.095Z,4.20
2019-05-20T14:26:52.095Z,6.80
2019-05-20T14:29:21.984Z,5.73
2019-05-20T14:31:52.840Z,7.13
2019-05-20T14:34:23.647Z,8.70
2019-05-20T14:36:53.789Z,5.73
2019-05-20T14:39:24.108Z,7.03
2019-05-20T14:41:53.938Z,9.67
2019-05-20T14:44:24.154Z,10.00
2019-05-20T14:46:54.384Z,8.77
2019-05-20T14:49:24.304Z,7.30
2019-05-20T14:51:55.021Z,7.27
2019-05-20T14:54:25.012Z,7.17
2019-05-20T14:56:55.350Z,7.40
2019-05-20T14:59:26.754Z,6.13
2019-05-20T15:01:56.816Z,7.03
2019-05-20T15:04:27.305Z,7.17
2019-05-20T15:06:57.229Z,14.10
2019-05-20T15:09:27.316Z,7.07
2019-05-20T15:11:57.877Z,6.43
2019-05-20T15:14:27.949Z,10.03
2019-05-20T15:16:58.287Z,7.97
2019-05-20T15:19:29.817Z,7.57
2019-05-20T15:21:59.956Z,8.67
2019-05-20T15:24:30.389Z,5.77
2019-05-20T15:27:01.340Z,6.33
2019-05-20T15:29:31.514Z,4.33
2019-05-20T15:32:02.849Z,6.77
2019-05-20T15:34:32.784Z,7.27
2019-05-20T15:37:03.460Z,8.77
2019-05-20T15:39:33.542Z,8.13
2019-05-20T15:42:03.817Z,7.53
2019-05-20T15:44:33.977Z,7.63
2019-05-20T15:47:03.932Z,8.67
2019-05-20T15:49:33.900Z,3.90
2019-05-20T15:52:04.290Z,6.00
2019-05-20T15:54:34.361Z,6.50
2019-05-20T15:57:04.542Z,6.87
2019-05-20T15:59:45.338Z,6.90
2019-05-20T16:02:06.853Z,6.37
2019-05-20T16:04:40.040Z,7.13
2019-05-20T16:07:11.459Z,4.47
2019-05-20T16:09:42.171Z,5.17
2019-05-20T16:12:12.395Z,5.67
2019-05-20T16:14:42.327Z,4.90
2019-05-20T16:17:12.844Z,5.07
2019-05-20T16:19:42.670Z,5.37
2019-05-20T16:22:12.658Z,5.53
2019-05-20T16:24:45.354Z,6.73
2019-05-20T16:27:15.076Z,4.20
2019-05-20T16:30:00.656Z,4.43
2019-05-20T16:32:17.172Z,5.90
2019-05-20T16:34:47.180Z,5.63
2019-05-20T16:37:17.023Z,7.73
2019-05-20T16:39:47.185Z,7.13
2019-05-20T16:42:17.300Z,6.53
2019-05-20T16:44:47.466Z,6.63
2019-05-20T16:47:17.563Z,8.97
2019-05-20T16:49:47.419Z,8.33
2019-05-20T16:52:17.714Z,7.47
2019-05-20T16:54:47.703Z,7.37
2019-05-20T16:57:17.798Z,7.50
2019-05-20T16:59:47.674Z,9.73
2019-05-20T17:02:17.628Z,6.70
2019-05-20T17:04:47.504Z,7.57
2019-05-20T17:07:17.443Z,7.03
2019-05-20T17:09:47.458Z,6.70
2019-05-20T17:12:17.425Z,4.10
2019-05-20T17:14:47.377Z,4.40
2019-05-20T17:17:17.300Z,7.77
2019-05-20T17:19:47.408Z,4.30
2019-05-20T17:22:18.223Z,4.23
2019-05-20T17:24:48.169Z,5.80
2019-05-20T17:27:19.296Z,7.27
2019-05-20T17:29:49.649Z,7.33
2019-05-20T17:32:20.156Z,13.43
2019-05-20T17:34:50.340Z,10.83
2019-05-20T17:37:20.380Z,13.13
2019-05-20T17:39:54.200Z,11.80
2019-05-20T17:42:24.468Z,12.30
2019-05-20T17:44:54.365Z,15.33
2019-05-20T17:47:24.557Z,14.80
2019-05-20T17:49:55.064Z,15.17
2019-05-20T17:52:25.294Z,11.77
2019-05-20T17:55:04.316Z,15.03
2019-05-20T17:57:35.488Z,10.00
2019-05-20T18:00:06.716Z,14.07
2019-05-20T18:02:36.718Z,13.37
2019-05-20T18:05:06.965Z,13.40
2019-05-20T18:07:36.828Z,13.53
2019-05-20T18:10:07.088Z,15.40
2019-05-20T18:12:37.031Z,14.80
2019-05-20T18:15:08.510Z,12.23
2019-05-20T18:17:38.753Z,15.13
2019-05-20T18:20:08.865Z,14.07
2019-05-20T18:22:39.049Z,13.23
2019-05-20T18:25:09.231Z,13.03
2019-05-20T18:27:39.925Z,13.63
2019-05-20T18:30:10.679Z,13.13
2019-05-20T18:32:40.854Z,12.03
2019-05-20T18:35:11.109Z,12.97
2019-05-20T18:37:40.988Z,10.80
2019-05-20T18:40:14.457Z,9.27
2019-05-20T18:42:43.198Z,12.77
2019-05-20T18:45:13.226Z,10.30
2019-05-20T18:47:43.635Z,7.90
2019-05-20T18:50:13.858Z,10.87
2019-05-20T18:52:44.062Z,9.67
2019-05-20T18:55:14.111Z,10.13
2019-05-20T18:57:44.046Z,9.80
2019-05-20T19:00:14.557Z,7.20
2019-05-20T19:02:44.496Z,8.57
2019-05-20T19:05:14.436Z,8.53
2019-05-20T19:07:44.862Z,10.23
2019-05-20T19:10:15.264Z,6.90
2019-05-20T19:12:45.197Z,5.97
2019-05-20T19:15:16.586Z,5.47
2019-05-20T19:17:46.825Z,7.90
2019-05-20T19:20:16.953Z,5.63
2019-05-20T19:22:47.376Z,5.53
2019-05-20T19:25:17.485Z,5.23
2019-05-20T19:27:47.592Z,6.17
2019-05-20T19:30:17.563Z,6.53
2019-05-20T19:32:47.472Z,7.27
2019-05-20T19:35:19.308Z,6.43
2019-05-20T19:37:49.291Z,4.27
2019-05-20T19:40:19.495Z,5.67
2019-05-20T19:42:49.727Z,6.03
2019-05-20T19:45:19.546Z,5.17
2019-05-20T19:47:49.594Z,5.60
2019-05-20T19:50:20.859Z,4.67
2019-05-20T19:52:50.855Z,5.00
2019-05-20T19:55:23.788Z,4.27
2019-05-20T19:57:54.054Z,6.60
2019-05-20T20:00:24.117Z,8.03
2019-05-20T20:03:08.238Z,5.87
2019-05-20T20:05:49.042Z,5.37
2019-05-20T20:08:18.996Z,5.50
2019-05-20T20:10:49.274Z,4.37
2019-05-20T20:13:19.101Z,4.00
2019-05-20T20:15:48.958Z,6.13
2019-05-20T20:18:18.960Z,4.60
2019-05-20T20:20:48.989Z,6.23
2019-05-20T20:23:18.778Z,5.67
2019-05-20T20:25:48.742Z,6.50
2019-05-20T20:28:18.658Z,3.67
2019-05-20T20:30:48.410Z,6.57
2019-05-20T20:33:18.566Z,3.70
2019-05-20T20:35:48.835Z,4.57
2019-05-20T20:38:18.718Z,3.20
2019-05-20T20:40:49.116Z,4.53
2019-05-20T20:43:19.955Z,4.20
2019-05-20T20:45:49.834Z,4.03
2019-05-20T20:48:20.018Z,4.20
2019-05-20T20:50:49.897Z,7.03
2019-05-20T20:53:19.858Z,5.73
2019-05-20T20:55:50.278Z,8.43
2019-05-20T20:58:20.038Z,4.47
2019-05-20T21:00:50.018Z,4.90
2019-05-20T21:03:19.914Z,4.80
2019-05-20T21:05:50.003Z,6.17
2019-05-20T21:08:19.968Z,4.17
2019-05-20T21:10:49.958Z,3.97
2019-05-20T21:13:20.128Z,5.37
2019-05-20T21:15:49.933Z,6.27
2019-05-20T21:18:19.872Z,4.77
2019-05-20T21:20:49.639Z,4.83
2019-05-20T21:23:19.484Z,5.30
2019-05-20T21:25:49.318Z,5.87
2019-05-20T21:28:19.579Z,5.43
2019-05-20T21:30:49.480Z,4.70
2019-05-20T21:33:19.269Z,10.07
2019-05-20T21:35:49.027Z,4.00
2019-05-20T21:38:18.834Z,4.60
2019-05-20T21:40:48.569Z,4.93
2019-05-20T21:43:18.518Z,3.83
2019-05-20T21:45:48.339Z,3.33
2019-05-20T21:48:18.150Z,3.97
2019-05-20T21:50:47.895Z,3.70
2019-05-20T21:53:17.961Z,3.53
2019-05-20T21:55:47.803Z,4.40
2019-05-20T21:58:17.550Z,3.53
2019-05-20T22:00:51.329Z,2.83
2019-05-20T22:03:24.356Z,3.47
2019-05-20T22:05:53.027Z,5.17
2019-05-20T22:08:22.914Z,3.97
2019-05-20T22:10:52.771Z,3.47
2019-05-20T22:13:22.620Z,3.43
2019-05-20T22:15:53.564Z,4.07
2019-05-20T22:18:23.563Z,6.43
2019-05-20T22:20:53.381Z,3.57
2019-05-20T22:23:34.567Z,4.33
2019-05-20T22:26:04.471Z,5.23
2019-05-20T22:28:34.287Z,3.63
2019-05-20T22:31:04.238Z,4.73
2019-05-20T22:33:41.623Z,5.60
2019-05-20T22:36:05.696Z,4.93
2019-05-20T22:38:35.701Z,6.00
2019-05-20T22:41:05.601Z,4.40
2019-05-20T22:43:35.426Z,5.27
2019-05-20T22:46:05.245Z,8.13
2019-05-20T22:48:35.348Z,5.03
2019-05-20T22:51:05.481Z,5.27
2019-05-20T22:53:35.340Z,5.23
2019-05-20T22:56:05.187Z,7.83
2019-05-20T22:58:38.398Z,6.33
2019-05-20T23:01:06.500Z,5.00
2019-05-20T23:03:36.271Z,5.17
2019-05-20T23:06:06.175Z,5.47
2019-05-20T23:08:36.062Z,6.30
2019-05-20T23:11:05.840Z,5.70
2019-05-20T23:13:35.697Z,4.73
2019-05-20T23:16:05.665Z,5.67
2019-05-20T23:18:35.485Z,6.63
2019-05-20T23:21:05.264Z,6.47
2019-05-20T23:23:35.009Z,7.53
2019-05-20T23:26:05.095Z,9.03
2019-05-20T23:28:34.895Z,7.67
2019-05-20T23:31:05.211Z,9.93
2019-05-20T23:33:35.110Z,11.37
2019-05-20T23:36:04.956Z,9.37
2019-05-20T23:38:34.786Z,9.37
2019-05-20T23:41:04.605Z,9.83
2019-05-20T23:43:34.459Z,12.67
2019-05-20T23:46:04.540Z,15.30
2019-05-20T23:48:34.439Z,10.43
2019-05-20T23:51:04.359Z,11.63
2019-05-20T23:53:34.380Z,12.43
2019-05-20T23:56:04.189Z,9.40
2019-05-20T23:58:34.067Z,11.10
